createdAt,value
2023-04-28T00:02:02.968Z,100060.97
2023-04-28T00:05:06.557Z,100056.97
2023-04-28T00:08:09.358Z,100042.78
2023-04-28T00:11:12.417Z,100055.69
2023-04-28T00:14:15.488Z,100034.84
2023-04-28T00:17:18.716Z,100035.88
2023-04-28T00:20:21.824Z,100058.47
2023-04-28T00:23:24.763Z,100028.38
2023-04-28T00:26:27.379Z,100050.78
2023-04-28T00:29:30.789Z,100034.50
2023-04-28T00:32:33.563Z,100055.91
2023-04-28T00:35:36.560Z,100062.47
2023-04-28T00:38:39.612Z,100054.16
2023-04-28T00:41:42.632Z,100046.34
2023-04-28T00:44:45.361Z,100058.38
2023-04-28T00:47:48.427Z,100058.53
2023-04-28T00:50:51.988Z,100065.47
2023-04-28T00:53:55.615Z,100059.88
2023-04-28T00:56:58.893Z,100055.88
2023-04-28T01:00:02.737Z,100063.16
2023-04-28T01:03:05.922Z,100062.09
2023-04-28T01:06:09.936Z,100049.97
2023-04-28T01:09:13.285Z,100042.78
2023-04-28T01:12:17.073Z,100043.00
2023-04-28T01:15:20.728Z,100040.84
2023-04-28T01:18:24.376Z,100043.56
2023-04-28T01:21:30.401Z,100055.75
2023-04-28T01:24:33.449Z,100064.59
2023-04-28T01:27:36.976Z,100063.31
2023-04-28T01:30:40.427Z,100049.69
2023-04-28T01:33:43.694Z,100055.75
2023-04-28T01:36:46.819Z,100061.44
2023-04-28T01:39:49.497Z,100055.28
2023-04-28T01:42:52.585Z,100068.03
2023-04-28T01:45:55.520Z,100061.66
2023-04-28T01:48:58.802Z,100051.94
2023-04-28T01:52:01.639Z,100051.94
2023-04-28T01:55:06.401Z,100052.34
2023-04-28T01:58:09.351Z,100051.50
2023-04-28T02:01:12.893Z,100052.53
2023-04-28T02:04:16.842Z,100059.34
2023-04-28T02:07:20.179Z,100053.94
2023-04-28T02:10:24.541Z,100050.22
2023-04-28T02:13:27.244Z,100051.50
2023-04-28T02:16:30.332Z,100050.28
2023-04-28T02:19:33.185Z,100056.06
2023-04-28T02:22:36.449Z,100060.63
2023-04-28T02:25:39.485Z,100049.00
2023-04-28T02:28:42.654Z,100059.91
2023-04-28T02:31:45.547Z,100055.62
2023-04-28T02:34:54.300Z,100041.72
2023-04-28T02:37:58.388Z,100057.16
2023-04-28T02:41:06.574Z,100039.69
2023-04-28T02:44:09.234Z,100043.50
2023-04-28T02:47:12.339Z,100049.53
2023-04-28T02:50:15.341Z,100039.16
2023-04-28T02:53:18.536Z,100062.03
2023-04-28T02:56:21.281Z,100055.81
2023-04-28T02:59:24.868Z,100048.59
2023-04-28T03:02:27.668Z,100045.50
2023-04-28T03:05:31.015Z,100056.97
2023-04-28T03:08:34.360Z,100050.31
2023-04-28T03:11:37.658Z,100056.12
2023-04-28T03:14:40.558Z,100049.09
2023-04-28T03:17:43.846Z,100052.44
2023-04-28T03:20:46.621Z,100047.28
2023-04-28T03:23:49.748Z,100041.63
2023-04-28T03:26:52.445Z,100040.81
2023-04-28T03:29:55.448Z,100065.16
2023-04-28T03:32:58.296Z,100064.53
2023-04-28T03:36:01.383Z,100067.66
2023-04-28T03:39:04.422Z,100075.81
2023-04-28T03:42:07.500Z,100067.28
2023-04-28T03:45:16.775Z,100065.84
2023-04-28T03:48:19.855Z,100063.94
2023-04-28T03:51:22.671Z,100065.44
2023-04-28T03:54:25.802Z,100052.50
2023-04-28T03:57:28.541Z,100060.00
2023-04-28T04:00:32.434Z,100069.59
2023-04-28T04:03:36.021Z,100071.25
2023-04-28T04:06:38.802Z,100063.13
2023-04-28T04:09:42.226Z,100061.22
2023-04-28T04:12:45.552Z,100062.66
2023-04-28T04:15:50.119Z,100063.03
2023-04-28T04:18:53.172Z,100069.47
2023-04-28T04:21:58.988Z,100066.97
2023-04-28T04:25:02.746Z,100062.53
2023-04-28T04:28:05.825Z,100063.91
2023-04-28T04:31:08.688Z,100065.06
2023-04-28T04:34:12.334Z,100062.88
2023-04-28T04:37:15.090Z,100067.09
2023-04-28T04:40:18.450Z,100064.22
2023-04-28T04:43:21.708Z,100051.97
2023-04-28T04:46:24.985Z,100045.09
2023-04-28T04:49:27.910Z,100058.00
2023-04-28T04:52:31.279Z,100055.47
2023-04-28T04:55:34.535Z,100059.12
2023-04-28T04:58:38.926Z,100060.09
2023-04-28T05:01:43.453Z,100050.31
2023-04-28T05:04:46.905Z,100051.03
2023-04-28T05:07:50.190Z,100039.78
2023-04-28T05:10:53.318Z,100051.53
2023-04-28T05:13:56.486Z,100064.69
2023-04-28T05:17:00.057Z,100053.53
2023-04-28T05:20:03.784Z,100066.66
2023-04-28T05:23:07.033Z,100080.78
2023-04-28T05:26:10.036Z,100081.34
2023-04-28T05:29:13.429Z,100072.56
2023-04-28T05:32:16.603Z,100067.72
2023-04-28T05:35:20.465Z,100062.75
2023-04-28T05:38:23.656Z,100066.75
2023-04-28T05:41:26.868Z,100067.00
2023-04-28T05:44:31.625Z,100070.78
2023-04-28T05:47:35.590Z,100054.91
2023-04-28T05:50:39.123Z,100065.19
2023-04-28T05:53:42.183Z,100070.41
2023-04-28T05:56:44.901Z,100073.12
2023-04-28T05:59:48.566Z,100073.59
2023-04-28T06:02:51.494Z,100052.38
2023-04-28T06:05:54.714Z,100070.31
2023-04-28T06:08:57.735Z,100065.19
2023-04-28T06:12:01.643Z,100068.59
2023-04-28T06:15:06.299Z,100066.66
2023-04-28T06:18:09.825Z,100065.75
2023-04-28T06:21:12.892Z,100051.81
2023-04-28T06:24:16.466Z,100067.41
2023-04-28T06:27:19.990Z,100061.69
2023-04-28T06:30:24.224Z,100059.38
2023-04-28T06:33:27.027Z,100071.94
2023-04-28T06:36:30.059Z,100072.50
2023-04-28T06:39:32.974Z,100078.00
2023-04-28T06:42:36.334Z,100077.81
2023-04-28T06:45:40.572Z,100067.16
2023-04-28T06:48:43.817Z,100066.94
2023-04-28T06:51:46.595Z,100065.81
2023-04-28T06:54:50.905Z,100074.06
2023-04-28T06:57:53.794Z,100085.50
2023-04-28T07:00:56.882Z,100086.59
2023-04-28T07:04:00.096Z,100086.62
2023-04-28T07:07:05.031Z,100070.25
2023-04-28T07:10:08.462Z,100078.44
2023-04-28T07:13:11.721Z,100081.44
2023-04-28T07:16:15.550Z,100080.63
2023-04-28T07:19:18.789Z,100076.94
2023-04-28T07:22:22.315Z,100082.97
2023-04-28T07:25:25.373Z,100081.22
2023-04-28T07:28:28.116Z,100072.72
2023-04-28T07:31:31.091Z,100057.72
2023-04-28T07:34:35.117Z,100059.41
2023-04-28T07:37:38.058Z,100060.78
2023-04-28T07:40:43.856Z,100057.56
2023-04-28T07:43:47.161Z,100061.25
2023-04-28T07:46:52.152Z,100049.41
2023-04-28T07:49:55.660Z,100027.28
2023-04-28T07:52:59.281Z,100032.63
2023-04-28T07:56:02.490Z,100038.34
2023-04-28T07:59:05.255Z,100033.63
2023-04-28T08:02:08.541Z,100016.16
2023-04-28T08:05:12.112Z,100006.66
2023-04-28T08:08:14.964Z,99999.59
2023-04-28T08:11:17.998Z,99992.09
2023-04-28T08:14:21.588Z,99997.34
2023-04-28T08:17:24.684Z,99982.66
2023-04-28T08:20:27.443Z,99983.22
2023-04-28T08:23:31.965Z,99985.47
2023-04-28T08:26:34.647Z,99984.19
2023-04-28T08:29:37.584Z,99990.03
2023-04-28T08:32:40.326Z,99988.03
2023-04-28T08:35:43.379Z,99965.06
2023-04-28T08:38:46.203Z,99975.19
2023-04-28T08:41:49.686Z,99976.97
2023-04-28T08:44:59.702Z,99977.16
2023-04-28T08:48:05.267Z,99981.47
2023-04-28T08:51:08.500Z,99983.13
2023-04-28T08:54:29.315Z,99991.16
2023-04-28T08:57:41.522Z,99989.88
2023-04-28T09:00:44.876Z,99976.00
2023-04-28T09:03:49.450Z,99987.53
2023-04-28T09:06:53.432Z,99968.78
2023-04-28T09:10:18.380Z,99986.31
2023-04-28T09:13:27.438Z,99980.06
2023-04-28T09:16:41.528Z,99981.19
2023-04-28T09:19:44.736Z,99971.75
2023-04-28T09:22:47.396Z,99959.94
2023-04-28T09:26:00.590Z,99968.53
2023-04-28T09:29:15.477Z,99965.28
2023-04-28T09:32:20.998Z,99952.63
2023-04-28T09:35:59.091Z,99979.91
2023-04-28T09:39:02.473Z,99964.50
2023-04-28T09:42:05.465Z,99962.47
2023-04-28T09:45:09.726Z,99952.53
2023-04-28T09:48:12.536Z,99952.78
2023-04-28T09:51:20.953Z,99950.19
2023-04-28T09:54:27.854Z,99947.84
2023-04-28T09:57:35.281Z,99941.16
2023-04-28T10:00:40.520Z,99940.25
2023-04-28T10:03:44.729Z,99930.09
2023-04-28T10:06:47.561Z,99933.75
2023-04-28T10:09:51.400Z,99938.91
2023-04-28T10:12:55.066Z,99923.75
2023-04-28T10:15:58.767Z,99901.25
2023-04-28T10:19:03.363Z,99918.75
2023-04-28T10:22:32.637Z,99920.59
2023-04-28T10:25:38.728Z,99902.37
2023-04-28T10:28:46.768Z,99896.53
2023-04-28T10:32:17.286Z,99885.59
2023-04-28T10:35:36.573Z,99873.97
2023-04-28T10:39:09.697Z,99863.37
2023-04-28T10:42:51.449Z,99859.19
2023-04-28T10:45:58.070Z,99855.22
2023-04-28T10:49:01.664Z,99857.97
2023-04-28T10:52:33.570Z,99838.25
2023-04-28T10:55:36.910Z,99836.16
2023-04-28T10:58:46.011Z,99828.78
2023-04-28T11:01:49.081Z,99823.53
2023-04-28T11:05:11.936Z,99822.44
2023-04-28T11:08:27.111Z,99816.81
2023-04-28T11:11:30.311Z,99806.88
2023-04-28T11:14:35.244Z,99792.12
2023-04-28T11:17:42.545Z,99806.88
2023-04-28T11:20:50.351Z,99808.31
2023-04-28T11:23:53.292Z,99794.28
2023-04-28T11:26:57.177Z,99797.16
2023-04-28T11:30:01.468Z,99795.72
2023-04-28T11:33:04.905Z,99785.91
2023-04-28T11:36:07.717Z,99781.50
2023-04-28T11:39:12.734Z,99780.75
2023-04-28T11:42:15.628Z,99769.19
2023-04-28T11:45:18.777Z,99757.22
2023-04-28T11:48:22.575Z,99754.66
2023-04-28T11:51:33.941Z,99760.78
2023-04-28T11:54:37.299Z,99746.75
2023-04-28T11:57:40.283Z,99743.72
2023-04-28T12:00:43.267Z,99745.75
2023-04-28T12:03:47.839Z,99742.81
2023-04-28T12:07:07.911Z,99734.25
2023-04-28T12:10:16.903Z,99733.25
2023-04-28T12:13:20.001Z,99722.06
2023-04-28T12:16:39.082Z,99716.63
2023-04-28T12:19:45.787Z,99722.06
2023-04-28T12:22:50.695Z,99713.16
2023-04-28T12:25:53.417Z,99691.53
2023-04-28T12:28:56.475Z,99699.94
2023-04-28T12:31:59.172Z,99685.72
2023-04-28T12:35:02.540Z,99689.69
2023-04-28T12:38:05.203Z,99684.19
2023-04-28T12:41:08.188Z,99669.78
2023-04-28T12:44:10.891Z,99671.53
2023-04-28T12:47:14.259Z,99672.03
2023-04-28T12:50:17.004Z,99668.75
2023-04-28T12:53:20.231Z,99652.31
2023-04-28T12:56:23.818Z,99654.19
2023-04-28T12:59:26.926Z,99654.28
2023-04-28T13:02:29.726Z,99646.84
2023-04-28T13:05:34.978Z,99638.13
2023-04-28T13:08:37.604Z,99621.94
2023-04-28T13:11:41.392Z,99635.41
2023-04-28T13:14:44.079Z,99649.09
2023-04-28T13:17:48.665Z,99635.59
2023-04-28T13:20:51.349Z,99638.19
2023-04-28T13:23:55.981Z,99623.41
2023-04-28T13:26:58.665Z,99639.75
2023-04-28T13:30:03.931Z,99633.09
2023-04-28T13:33:06.756Z,99637.16
2023-04-28T13:36:10.533Z,99624.94
2023-04-28T13:39:16.698Z,99638.38
2023-04-28T13:42:19.777Z,99636.47
2023-04-28T13:45:23.000Z,99636.91
2023-04-28T13:48:27.794Z,99619.06
2023-04-28T13:51:32.969Z,99627.28
2023-04-28T13:54:36.069Z,99631.53
2023-04-28T13:57:38.892Z,99628.75
2023-04-28T14:00:42.145Z,99624.94
2023-04-28T14:03:46.316Z,99613.88
2023-04-28T14:06:50.530Z,99573.81
2023-04-28T14:09:53.950Z,99610.09
2023-04-28T14:12:56.710Z,99613.37
2023-04-28T14:16:00.119Z,99608.12
2023-04-28T14:19:02.963Z,99603.38
2023-04-28T14:22:06.093Z,99602.34
2023-04-28T14:25:09.382Z,99595.78
2023-04-28T14:28:12.334Z,99590.25
2023-04-28T14:31:15.097Z,99586.12
2023-04-28T14:34:18.077Z,99575.00
2023-04-28T14:37:20.873Z,99572.63
2023-04-28T14:40:24.431Z,99571.28
2023-04-28T14:43:27.551Z,99559.81
2023-04-28T14:46:31.018Z,99565.56
2023-04-28T14:49:34.142Z,99561.47
2023-04-28T14:52:38.197Z,99567.88
2023-04-28T14:55:41.116Z,99561.31
2023-04-28T14:58:44.233Z,99561.50
2023-04-28T15:01:47.217Z,99562.09
2023-04-28T15:04:50.494Z,99572.66
2023-04-28T15:07:53.346Z,99565.50
2023-04-28T15:10:56.351Z,99568.56
2023-04-28T15:13:59.179Z,99581.44
2023-04-28T15:17:02.153Z,99564.63
2023-04-28T15:20:05.687Z,99574.37
2023-04-28T15:23:09.672Z,99564.03
2023-04-28T15:26:12.481Z,99560.06
2023-04-28T15:29:16.172Z,99570.59
2023-04-28T15:32:19.223Z,99566.28
2023-04-28T15:35:22.292Z,99546.38
2023-04-28T15:38:25.054Z,99558.16
2023-04-28T15:41:29.230Z,99552.28
2023-04-28T15:44:32.388Z,99554.50
2023-04-28T15:47:35.317Z,99556.12
2023-04-28T15:50:37.983Z,99536.22
2023-04-28T15:53:41.761Z,99541.56
2023-04-28T15:56:44.569Z,99545.28
2023-04-28T15:59:47.852Z,99532.78
2023-04-28T16:02:51.013Z,99532.62
2023-04-28T16:05:57.801Z,99534.66
2023-04-28T16:09:00.658Z,99520.97
2023-04-28T16:12:05.174Z,99519.97
2023-04-28T16:15:10.037Z,99514.41
2023-04-28T16:18:13.344Z,99517.28
2023-04-28T16:21:17.423Z,99515.72
2023-04-28T16:24:22.393Z,99508.13
2023-04-28T16:27:25.292Z,99508.66
2023-04-28T16:30:28.390Z,99504.63
2023-04-28T16:33:31.398Z,99495.84
2023-04-28T16:36:34.353Z,99487.88
2023-04-28T16:39:37.245Z,99491.22
2023-04-28T16:42:40.612Z,99478.22
2023-04-28T16:45:43.628Z,99470.78
2023-04-28T16:48:46.618Z,99468.41
2023-04-28T16:52:00.204Z,99469.03
2023-04-28T16:55:04.332Z,99452.69
2023-04-28T16:58:07.668Z,99452.72
2023-04-28T17:01:10.803Z,99456.66
2023-04-28T17:04:14.892Z,99442.44
2023-04-28T17:07:18.192Z,99447.53
2023-04-28T17:10:22.393Z,99446.50
2023-04-28T17:13:25.925Z,99443.28
2023-04-28T17:16:32.105Z,99430.09
2023-04-28T17:19:35.589Z,99427.41
2023-04-28T17:22:38.449Z,99423.06
2023-04-28T17:25:41.430Z,99412.97
2023-04-28T17:28:44.275Z,99414.16
2023-04-28T17:31:47.607Z,99420.47
2023-04-28T17:34:50.424Z,99429.87
2023-04-28T17:37:53.649Z,99425.22
2023-04-28T17:40:56.843Z,99434.63
2023-04-28T17:44:00.122Z,99432.72
2023-04-28T17:47:02.898Z,99442.72
2023-04-28T17:50:06.641Z,99443.34
2023-04-28T17:53:09.537Z,99453.56
2023-04-28T17:56:12.539Z,99469.34
2023-04-28T17:59:16.165Z,99465.31
2023-04-28T18:02:20.482Z,99450.38
2023-04-28T18:05:24.480Z,99458.41
2023-04-28T18:08:38.841Z,99466.69
2023-04-28T18:11:41.950Z,99472.72
2023-04-28T18:14:45.494Z,99467.84
2023-04-28T18:17:48.578Z,99459.66
2023-04-28T18:20:58.141Z,99456.94
2023-04-28T18:24:01.432Z,99460.78
2023-04-28T18:27:04.328Z,99458.88
2023-04-28T18:30:08.159Z,99462.19
2023-04-28T18:33:11.043Z,99477.78
2023-04-28T18:36:14.035Z,99481.34
2023-04-28T18:39:18.250Z,99459.44
2023-04-28T18:42:21.610Z,99461.34
2023-04-28T18:45:30.073Z,99480.81
2023-04-28T18:48:36.666Z,99492.84
2023-04-28T18:51:39.439Z,99481.34
2023-04-28T18:54:43.370Z,99463.00
2023-04-28T18:57:48.077Z,99477.81
2023-04-28T19:00:52.165Z,99474.78
2023-04-28T19:03:55.431Z,99466.28
2023-04-28T19:06:58.589Z,99479.38
2023-04-28T19:10:01.279Z,99465.69
2023-04-28T19:13:04.599Z,99473.09
2023-04-28T19:16:07.305Z,99464.34
2023-04-28T19:19:10.572Z,99453.94
2023-04-28T19:22:36.541Z,99470.34
2023-04-28T19:25:39.691Z,99461.06
2023-04-28T19:28:43.190Z,99455.03
2023-04-28T19:31:46.244Z,99447.88
2023-04-28T19:34:50.428Z,99448.44
2023-04-28T19:37:54.897Z,99449.81
2023-04-28T19:41:01.190Z,99450.66
2023-04-28T19:44:04.470Z,99443.56
2023-04-28T19:47:07.558Z,99450.66
2023-04-28T19:50:11.669Z,99455.06
2023-04-28T19:53:14.845Z,99453.44
2023-04-28T19:56:17.905Z,99442.47
2023-04-28T19:59:21.649Z,99436.19
2023-04-28T20:02:25.213Z,99427.41
2023-04-28T20:05:29.402Z,99429.06
2023-04-28T20:08:32.999Z,99424.13
2023-04-28T20:11:36.722Z,99398.97
2023-04-28T20:14:39.445Z,99395.12
2023-04-28T20:17:42.855Z,99383.87
2023-04-28T20:20:45.765Z,99401.63
2023-04-28T20:23:48.733Z,99387.62
2023-04-28T20:26:54.147Z,99388.16
2023-04-28T20:29:57.156Z,99389.75
2023-04-28T20:33:00.028Z,99394.69
2023-04-28T20:36:03.500Z,99400.13
2023-04-28T20:39:07.701Z,99417.31
2023-04-28T20:42:10.764Z,99420.31
2023-04-28T20:45:13.517Z,99415.38
2023-04-28T20:48:17.213Z,99421.66
2023-04-28T20:51:19.996Z,99416.44
2023-04-28T20:54:23.571Z,99399.47
2023-04-28T20:57:26.348Z,99415.63
2023-04-28T21:00:29.574Z,99407.72
2023-04-28T21:03:32.524Z,99411.50
2023-04-28T21:06:35.623Z,99399.47
2023-04-28T21:09:38.341Z,99404.94
2023-04-28T21:12:41.516Z,99407.66
2023-04-28T21:15:44.296Z,99401.94
2023-04-28T21:18:49.227Z,99391.84
2023-04-28T21:21:52.480Z,99382.50
2023-04-28T21:24:55.850Z,99390.69
2023-04-28T21:28:00.975Z,99396.12
2023-04-28T21:31:05.922Z,99405.13
2023-04-28T21:34:08.768Z,99412.22
2023-04-28T21:37:11.675Z,99416.84
2023-04-28T21:40:14.417Z,99413.25
2023-04-28T21:43:17.544Z,99417.66
2023-04-28T21:46:20.307Z,99417.38
2023-04-28T21:49:23.529Z,99418.78
2023-04-28T21:52:26.918Z,99418.22
2023-04-28T21:55:38.365Z,99422.84
2023-04-28T21:58:41.294Z,99415.50
2023-04-28T22:01:44.450Z,99409.22
2023-04-28T22:04:47.731Z,99410.88
2023-04-28T22:07:51.755Z,99411.12
2023-04-28T22:10:54.745Z,99399.91
2023-04-28T22:13:57.492Z,99399.34
2023-04-28T22:17:00.547Z,99400.44
2023-04-28T22:20:03.930Z,99381.53
2023-04-28T22:23:06.890Z,99388.66
2023-04-28T22:26:09.550Z,99393.75
2023-04-28T22:29:12.820Z,99394.81
2023-04-28T22:32:15.467Z,99393.97
2023-04-28T22:35:18.763Z,99386.28
2023-04-28T22:38:21.827Z,99392.84
2023-04-28T22:41:24.867Z,99377.19
2023-04-28T22:44:28.078Z,99378.84
2023-04-28T22:47:31.186Z,99382.97
2023-04-28T22:50:33.872Z,99399.69
2023-04-28T22:53:36.847Z,99392.03
2023-04-28T22:56:40.065Z,99393.13
2023-04-28T22:59:43.330Z,99391.81
2023-04-28T23:02:46.437Z,99375.63
2023-04-28T23:05:49.595Z,99391.81
2023-04-28T23:08:52.446Z,99398.06
2023-04-28T23:11:55.534Z,99391.53
2023-04-28T23:14:58.377Z,99377.03
2023-04-28T23:18:01.569Z,99380.59
2023-04-28T23:21:04.266Z,99375.16
2023-04-28T23:24:07.542Z,99375.72
2023-04-28T23:27:10.207Z,99357.38
2023-04-28T23:30:13.351Z,99365.34
2023-04-28T23:33:16.074Z,99364.81
2023-04-28T23:36:19.399Z,99353.53
2023-04-28T23:39:22.067Z,99347.50
2023-04-28T23:42:26.982Z,99331.94
2023-04-28T23:45:30.165Z,99333.41
2023-04-28T23:48:34.961Z,99345.94
2023-04-28T23:51:37.642Z,99342.41
2023-04-28T23:54:40.707Z,99340.50
2023-04-28T23:57:43.401Z,99332.06
